^^
Datos históricos de la estación: Murcia-Puente Tocinos
Diario Informe para Julio 31, 2021 Unidades:  Ingés    Métrico   Ambas
Diario Semanal Mensual Anual
  Máxima: Mínima: Promedio:
Temperatura: 95.2 °F 75.2 °F 85.5 °F
Punto de rocio: 73.2 °F 41 °F 62.8 °F
Humedad: 81% 19% 52%
Velocidad viento: 13mph 1.8mph 6.5mph
Racha viento: 23.5mph - -
Viento- - SSE
Presión: 29.8 in 29.7 in -
Precipitación: 0 in    
 
 
Tabla de datos para Julio 31, 2021
Hora Temperatura Punto de rocio Presión Viento Velocidad viento Racha viento Humedad Intensidad lluvia(por hora) Nubes
00:04 80.4 °F 71.8 °F 29.8 in SO 4.7 mph 10.2 mph 75% 0 in
00:09 80.4 °F 71.8 °F 29.8 in SO 5.1 mph 10 mph 75% 0 in
00:14 80.4 °F 71.8 °F 29.8 in SO 5.4 mph 7 mph 75% 0 in
00:19 80.4 °F 71.8 °F 29.8 in SO 4.4 mph 8.1 mph 75% 0 in
00:24 80.4 °F 71.8 °F 29.8 in SO 3.6 mph 9.2 mph 75% 0 in
00:29 80.2 °F 71.8 °F 29.8 in SO 3.9 mph 9 mph 75% 0 in
00:34 80.2 °F 72 °F 29.8 in SO 4.3 mph 10.4 mph 75.8% 0 in
00:39 80.1 °F 72 °F 29.8 in SSO 5 mph 10.7 mph 76.3% 0 in
00:44 79.7 °F 71.8 °F 29.8 in SSO 5.4 mph 11 mph 77% 0 in
00:49 79.5 °F 72.1 °F 29.8 in SSO 5.9 mph 10 mph 78% 0 in
00:54 79.5 °F 72 °F 29.8 in SO 6.2 mph 9 mph 78% 0 in
00:59 79.3 °F 72 °F 29.8 in SSO 5.3 mph 10.7 mph 78% 0 in
01:04 79.3 °F 72 °F 29.8 in SSO 4.7 mph 11 mph 78% 0 in
01:09 79.3 °F 72 °F 29.8 in SSO 5.4 mph 10.4 mph 78.1% 0 in
01:14 79.2 °F 72.1 °F 29.8 in SO 5.9 mph 10.4 mph 79% 0 in
01:19 79.2 °F 72.1 °F 29.8 in SO 5.6 mph 10 mph 79% 0 in
01:24 79.2 °F 72.1 °F 29.8 in SSO 5.4 mph 9.2 mph 79% 0 in
01:29 79.2 °F 72.1 °F 29.8 in SO 5.3 mph 10 mph 79% 0 in
01:34 79 °F 72 °F 29.8 in SO 5.2 mph 11.5 mph 79% 0 in
01:39 78.8 °F 72 °F 29.8 in SSO 6 mph 12 mph 79.6% 0 in
01:44 78.6 °F 72 °F 29.8 in SSO 6.4 mph 11 mph 80% 0 in
01:49 78.4 °F 71.8 °F 29.8 in SSO 6.7 mph 13.5 mph 80% 0 in
01:54 78.4 °F 72 °F 29.8 in SSO 6.9 mph 14 mph 80.3% 0 in
01:59 78.4 °F 72.1 °F 29.8 in SSO 6.9 mph 14 mph 81% 0 in
02:04 78.4 °F 72 °F 29.8 in SSO 6.9 mph 10.4 mph 80.5% 0 in
02:09 78.4 °F 71.8 °F 29.8 in SSO 6.5 mph 10 mph 80% 0 in
02:14 78.4 °F 71.8 °F 29.8 in SO 6.2 mph 9 mph 80% 0 in
02:19 78.6 °F 71.8 °F 29.8 in SO 5.6 mph 9.2 mph 79.7% 0 in
02:24 79 °F 71.8 °F 29.8 in OSO 5.2 mph 8 mph 79% 0 in
02:29 79 °F 72 °F 29.8 in OSO 4.2 mph 7 mph 79% 0 in
02:34 79 °F 71.6 °F 29.8 in Oeste 3.6 mph 6 mph 78.3% 0 in
02:39 78.6 °F 71.6 °F 29.8 in OSO 3.9 mph 6.9 mph 79% 0 in
02:44 78.4 °F 71.8 °F 29.8 in SO 4 mph 7 mph 79.7% 0 in
02:49 78.4 °F 71.8 °F 29.8 in SO 3.7 mph 6.9 mph 80% 0 in
02:54 78.4 °F 71.8 °F 29.8 in SO 3.6 mph 7 mph 80% 0 in
02:59 78.4 °F 71.8 °F 29.8 in Sur 3.3 mph 5.8 mph 80% 0 in
03:04 78.3 °F 71.6 °F 29.8 in SSO 3.1 mph 6 mph 80% 0 in
03:09 78.3 °F 71.6 °F 29.8 in SSO 3.7 mph 6 mph 80% 0 in
03:14 78.1 °F 71.8 °F 29.8 in SO 4 mph 6.2 mph 81% 0 in
03:19 78.1 °F 71.8 °F 29.8 in SO 4 mph 6.9 mph 81% 0 in
03:24 78.1 °F 71.8 °F 29.8 in SO 4 mph 7 mph 81% 0 in
03:29 78.1 °F 71.8 °F 29.8 in SO 4.2 mph 7 mph 81% 0 in
03:34 78.1 °F 71.8 °F 29.8 in SSO 4.3 mph 9.7 mph 81% 0 in
03:39 78.1 °F 71.8 °F 29.8 in SSO 4.5 mph 9.2 mph 81% 0 in
03:44 77.9 °F 71.6 °F 29.8 in SO 4.7 mph 9 mph 81% 0 in
03:49 77.7 °F 71.4 °F 29.8 in SSO 4.4 mph 7 mph 81% 0 in
03:54 77.7 °F 71.4 °F 29.8 in SO 4.3 mph 5.8 mph 81% 0 in
03:59 77.7 °F 71.4 °F 29.8 in SO 3.5 mph 6 mph 81% 0 in
04:04 77.7 °F 71.4 °F 29.8 in SO 3.1 mph 5.2 mph 81% 0 in
04:09 77.5 °F 71.2 °F 29.8 in SO 3 mph 5.8 mph 80.9% 0 in
04:14 77.5 °F 71.1 °F 29.8 in SO 2.9 mph 6 mph 80.6% 0 in
04:19 77.5 °F 71.1 °F 29.8 in OSO 2.5 mph 5 mph 80.5% 0 in
04:24 77.5 °F 70.9 °F 29.8 in OSO 2.4 mph 5 mph 80% 0 in
04:29 77.4 °F 70.7 °F 29.8 in SO 2.1 mph 4.6 mph 80% 0 in
04:34 77.4 °F 71.1 °F 29.8 in SSO 2 mph 5.2 mph 80.8% 0 in
04:39 77.4 °F 70.9 °F 29.8 in SO 2.6 mph 5.8 mph 80.3% 0 in
04:44 77.5 °F 70.9 °F 29.8 in SO 3.1 mph 6 mph 80% 0 in
04:49 77.5 °F 70.9 °F 29.8 in SO 3.7 mph 6 mph 79.9% 0 in
04:54 77.5 °F 70.5 °F 29.8 in SO 4 mph 5.8 mph 79% 0 in
04:59 77.7 °F 70.7 °F 29.8 in SSO 3.7 mph 4.7 mph 79% 0 in
05:04 77.7 °F 70.5 °F 29.8 in Sur 3.6 mph 5.8 mph 78.6% 0 in
05:09 77.7 °F 70.3 °F 29.8 in SSO 3.6 mph 6.2 mph 78% 0 in
05:14 77.9 °F 70.2 °F 29.7 in SO 3.6 mph 6.9 mph 77.4% 0 in
05:19 77.9 °F 70.2 °F 29.7 in SO 4 mph 6.9 mph 77% 0 in
05:24 77.9 °F 70.2 °F 29.7 in SO 4.3 mph 7 mph 77% 0 in
05:29 77.7 °F 70 °F 29.7 in SO 3.9 mph 6 mph 77% 0 in
05:34 77.5 °F 69.8 °F 29.7 in SSO 3.6 mph 6.2 mph 77% 0 in
05:39 77.5 °F 69.8 °F 29.8 in SSE 3.6 mph 6.2 mph 77% 0 in
05:44 77.4 °F 69.6 °F 29.8 in SSE 3.6 mph 6.2 mph 77.2% 0 in
05:49 77.2 °F 69.8 °F 29.8 in Sur 4 mph 6 mph 78% 0 in
05:54 76.8 °F 69.4 °F 29.8 in SSE 4.3 mph 7.6 mph 78% 0 in
05:59 76.6 °F 69.3 °F 29.8 in SSE 4.8 mph 8.5 mph 78% 0 in
06:04 76.1 °F 69.1 °F 29.8 in SSE 5.2 mph 9 mph 78.9% 0 in
06:09 75.7 °F 68.9 °F 29.8 in Sur 5.6 mph 9 mph 79% 0 in
06:14 75.7 °F 68.7 °F 29.8 in SSE 5.9 mph 7 mph 79% 0 in
06:19 75.9 °F 68.5 °F 29.8 in SSE 5 mph 7.4 mph 78.2% 0 in
06:24 76.1 °F 68.4 °F 29.8 in SSE 4.3 mph 7 mph 77.1% 0 in
06:29 76.3 °F 68.4 °F 29.8 in SE 4.5 mph 7 mph 76.4% 0 in
06:34 76.3 °F 68.2 °F 29.8 in SE 4.7 mph 6 mph 76% 0 in
06:39 76.1 °F 68 °F 29.8 in SE 4.1 mph 6.9 mph 76% 0 in
06:44 75.7 °F 67.6 °F 29.8 in SSE 3.6 mph 7 mph 76% 0 in
06:49 75.6 °F 67.5 °F 29.8 in SSE 3.9 mph 5.2 mph 76% 0 in
06:54 75.4 °F 67.1 °F 29.8 in SSE 4 mph 5 mph 75.7% 0 in
06:59 75.4 °F 66.9 °F 29.8 in SSE 3.4 mph 5.9 mph 74.7% 0 in
07:04 75.6 °F 67.3 °F 29.8 in SE 3.1 mph 6.9 mph 75.5% 0 in
07:09 75.4 °F 67.3 °F 29.8 in SSE 3.7 mph 7 mph 76% 0 in
07:14 75.2 °F 67.1 °F 29.8 in Sur 4 mph 6.2 mph 75.9% 0 in
07:19 75.6 °F 66.7 °F 29.8 in Sur 4.2 mph 6.2 mph 74.1% 0 in
07:24 75.7 °F 66.4 °F 29.8 in Sur 4.3 mph 6.2 mph 72.4% 0 in
07:29 76.3 °F 64.9 °F 29.8 in SSO 4.3 mph 6.9 mph 68.4% 0 in
07:34 76.6 °F 64.6 °F 29.8 in SO 4.3 mph 7 mph 66.3% 0 in
07:39 77.2 °F 64.8 °F 29.8 in OSO 3 mph 5 mph 65.7% 0 in
07:44 77.4 °F 65.3 °F 29.8 in ONO 2.4 mph 4.6 mph 66.4% 0 in
07:49 77.4 °F 65.7 °F 29.8 in Oeste 2.4 mph 5 mph 67.1% 0 in
07:54 77.4 °F 66 °F 29.8 in Oeste 2.4 mph 5.2 mph 68% 0 in
07:59 77.4 °F 66.4 °F 29.8 in OSO 2.7 mph 5 mph 69% 0 in
08:04 77.2 °F 66.6 °F 29.8 in OSO 2.9 mph 5 mph 69.7% 0 in
08:09 77.2 °F 66.6 °F 29.8 in OSO 2.9 mph 5 mph 70% 0 in
08:14 77.4 °F 66.4 °F 29.8 in SO 2.9 mph 5.2 mph 69.1% 0 in
08:19 77.5 °F 66.6 °F 29.8 in SO 3 mph 5 mph 69% 0 in
08:24 77.5 °F 66.6 °F 29.8 in Oeste 3.1 mph 6.2 mph 69% 0 in
08:29 77.5 °F 66.6 °F 29.8 in Oeste 3.6 mph 6.2 mph 68.8% 0 in
08:34 77.5 °F 65.5 °F 29.8 in Oeste 4 mph 6 mph 66.3% 0 in
08:39 78.1 °F 64.6 °F 29.8 in NNO 4 mph 9.7 mph 63.5% 0 in
08:44 78.4 °F 64.9 °F 29.8 in Este 4 mph 10 mph 63.2% 0 in
08:49 78.4 °F 64.8 °F 29.8 in Este 4.7 mph 8 mph 62.9% 0 in
08:54 78.6 °F 63.9 °F 29.8 in ENE 5.2 mph 6 mph 60.7% 0 in
08:59 79.2 °F 63.1 °F 29.8 in NE 4.1 mph 6 mph 58.1% 0 in
09:04 79.7 °F 62.2 °F 29.8 in ENE 3.6 mph 6.2 mph 55.4% 0 in
09:09 80.1 °F 61.7 °F 29.8 in ENE 3.3 mph 6 mph 53.8% 0 in
09:14 80.2 °F 61.9 °F 29.8 in ENE 3.1 mph 6 mph 53.4% 0 in
09:19 80.6 °F 61.3 °F 29.8 in ENE 3.4 mph 6 mph 51.7% 0 in
09:24 81 °F 61 °F 29.8 in NE 3.6 mph 6 mph 50.7% 0 in
09:29 81.5 °F 61.3 °F 29.8 in NNE 3.1 mph 5 mph 50.5% 0 in
09:34 81.9 °F 61.3 °F 29.8 in NNE 2.9 mph 5 mph 49.7% 0 in
09:39 82.4 °F 61.3 °F 29.8 in NE 2.6 mph 5 mph 49% 0 in
09:44 82.9 °F 60.8 °F 29.8 in ENE 2.4 mph 5 mph 47.1% 0 in
09:49 83.3 °F 59.4 °F 29.8 in SSO 2.1 mph 4 mph 44.5% 0 in
09:54 83.8 °F 60.4 °F 29.8 in OSO 1.8 mph 5.2 mph 45.4% 0 in
09:59 84 °F 61.3 °F 29.8 in North 2.2 mph 6.9 mph 46.6% 0 in
10:04 83.8 °F 62.1 °F 29.8 in NNE 2.4 mph 7 mph 47.9% 0 in
10:09 83.7 °F 62.8 °F 29.8 in NE 3.2 mph 7 mph 49.6% 0 in
10:14 83.7 °F 63 °F 29.8 in NNE 3.6 mph 8.1 mph 50% 0 in
10:19 83.5 °F 63.3 °F 29.8 in NE 4.5 mph 8 mph 50.9% 0 in
10:24 83.7 °F 66.2 °F 29.8 in NNE 5.2 mph 9.7 mph 56.2% 0 in
10:29 83.7 °F 69.3 °F 29.8 in NNE 5.2 mph 10 mph 62.2% 0 in
10:34 83.3 °F 70.2 °F 29.8 in NNE 5.2 mph 11.5 mph 64.7% 0 in
10:39 83.3 °F 71.2 °F 29.8 in NNE 5.3 mph 12 mph 67.3% 0 in
10:44 83.1 °F 71.1 °F 29.8 in NNE 5.4 mph 11.2 mph 67.2% 0 in
10:49 83.1 °F 72.5 °F 29.8 in NNE 6 mph 12 mph 70.4% 0 in
10:54 82.9 °F 73 °F 29.8 in North 6.4 mph 13 mph 72.1% 0 in
10:59 82.8 °F 73.2 °F 29.8 in NNE 7.1 mph 13.8 mph 73% 0 in
11:04 83.1 °F 73 °F 29.8 in NNE 7.6 mph 14 mph 72% 0 in
11:09 83.5 °F 72.7 °F 29.8 in NE 7.1 mph 13 mph 70% 0 in
11:14 84.2 °F 72.7 °F 29.8 in NNE 6.9 mph 14 mph 68.6% 0 in
11:19 84.4 °F 71.6 °F 29.8 in NNE 7.2 mph 15 mph 65.6% 0 in
11:24 84.6 °F 71.1 °F 29.8 in NNE 7.4 mph 15 mph 64.4% 0 in
11:29 84.7 °F 70.5 °F 29.8 in NNE 8 mph 14 mph 62.3% 0 in
11:34 85.1 °F 70.5 °F 29.8 in NNE 8.5 mph 13 mph 61.8% 0 in
11:39 85.5 °F 69.6 °F 29.8 in NNE 8 mph 13 mph 59.6% 0 in
11:44 85.5 °F 69.6 °F 29.8 in NNE 7.6 mph 15 mph 59.2% 0 in
11:49 85.6 °F 69.3 °F 29.8 in NNE 7.6 mph 15 mph 58% 0 in
11:54 86 °F 68.7 °F 29.8 in NNE 7.6 mph 13 mph 56.3% 0 in
11:59 86.4 °F 68.5 °F 29.8 in NNE 7.6 mph 11.8 mph 55.7% 0 in
12:04 86.5 °F 68.5 °F 29.8 in NNE 7.6 mph 15 mph 55.3% 0 in
12:09 86.5 °F 68.2 °F 29.8 in NNE 8.5 mph 15 mph 54.7% 0 in
12:14 86.9 °F 67.6 °F 29.8 in NNE 9.2 mph 15 mph 52.9% 0 in
12:19 87.3 °F 67.8 °F 29.8 in North 7.8 mph 14 mph 52.5% 0 in
12:24 87.8 °F 67.3 °F 29.8 in NE 6.9 mph 14 mph 50.8% 0 in
12:29 88 °F 65.7 °F 29.8 in NE 7.2 mph 13 mph 47.8% 0 in
12:34 88 °F 65.8 °F 29.8 in NNE 7.4 mph 13 mph 48% 0 in
12:39 88.3 °F 65.8 °F 29.8 in NNE 7.1 mph 11 mph 47.7% 0 in
12:44 88.7 °F 64.6 °F 29.8 in NNE 6.9 mph 13.7 mph 44.9% 0 in
12:49 88.9 °F 64.2 °F 29.8 in NNE 6.9 mph 14 mph 44.2% 0 in
12:54 89.1 °F 64 °F 29.8 in NNE 6.9 mph 15 mph 43.4% 0 in
12:59 89.6 °F 64.6 °F 29.8 in NE 6.6 mph 15 mph 43.7% 0 in
13:04 89.4 °F 64.9 °F 29.8 in NE 6.4 mph 15 mph 44.4% 0 in
13:09 89.6 °F 65.1 °F 29.8 in NNE 7.8 mph 15 mph 44.5% 0 in
13:14 90 °F 66.4 °F 29.8 in NE 8.7 mph 17.8 mph 46% 0 in
13:19 89.4 °F 66.2 °F 29.8 in NNE 8.7 mph 18.5 mph 46.6% 0 in
13:24 89.2 °F 66.9 °F 29.8 in NNE 8.7 mph 19 mph 47.7% 0 in
13:29 89.8 °F 67.5 °F 29.7 in NE 9.3 mph 17.5 mph 48% 0 in
13:34 90 °F 67.6 °F 29.7 in NNE 9.7 mph 17 mph 48.1% 0 in
13:39 90.1 °F 68.2 °F 29.7 in NE 9.9 mph 16.3 mph 48.7% 0 in
13:44 90.1 °F 68.5 °F 29.7 in NNE 10 mph 19.6 mph 49.1% 0 in
13:49 90.1 °F 68.5 °F 29.7 in NNE 10.9 mph 20 mph 49.3% 0 in
13:54 90.3 °F 68.7 °F 29.7 in NNE 11.4 mph 19 mph 49.3% 0 in
13:59 90.3 °F 69.1 °F 29.7 in NNE 10.9 mph 20.7 mph 49.9% 0 in
14:04 90.3 °F 69.3 °F 29.7 in NNE 10.7 mph 21 mph 50% 0 in
14:09 90.3 °F 69.3 °F 29.7 in NNE 12.1 mph 21 mph 50% 0 in
14:14 90.3 °F 69.6 °F 29.7 in NNE 13 mph 21 mph 50.8% 0 in
14:19 90.5 °F 69.8 °F 29.7 in NE 12.6 mph 20.8 mph 51% 0 in
14:24 90 °F 69.4 °F 29.7 in NNE 12.3 mph 21 mph 51.1% 0 in
14:29 90.1 °F 69.8 °F 29.7 in NE 12.3 mph 20 mph 51.3% 0 in
14:34 90.9 °F 69.8 °F 29.7 in NE 12.3 mph 19.6 mph 50.1% 0 in
14:39 91 °F 69.3 °F 29.7 in NE 10.6 mph 20 mph 48.9% 0 in
14:44 91.6 °F 66 °F 29.7 in Este 9.2 mph 20 mph 43.2% 0 in
14:49 91.9 °F 65.1 °F 29.7 in Este 8.5 mph 15 mph 41.4% 0 in
14:54 91.9 °F 65.7 °F 29.7 in ESE 8.1 mph 16.8 mph 42.3% 0 in
14:59 92.3 °F 66.4 °F 29.7 in SE 6.7 mph 17.3 mph 42.7% 0 in
15:04 92.5 °F 66.2 °F 29.7 in ESE 5.9 mph 15.2 mph 42.2% 0 in
15:09 92.3 °F 65.3 °F 29.7 in ESE 7.6 mph 15.6 mph 41.2% 0 in
15:14 92.1 °F 65.1 °F 29.7 in SE 8.5 mph 16 mph 41% 0 in
15:19 91.9 °F 65.1 °F 29.7 in SE 8 mph 16.1 mph 41.2% 0 in
15:24 91.8 °F 64.9 °F 29.7 in ESE 7.6 mph 16 mph 41.2% 0 in
15:29 91.9 °F 65.5 °F 29.7 in ESE 8.2 mph 17.3 mph 42% 0 in
15:34 91.9 °F 65.7 °F 29.7 in ESE 8.5 mph 17 mph 42.1% 0 in
15:39 91.9 °F 65.7 °F 29.7 in SE 8.3 mph 17.3 mph 42.1% 0 in
15:44 91.9 °F 66.4 °F 29.7 in ESE 8.1 mph 17.3 mph 43% 0 in
15:49 92.1 °F 66.2 °F 29.7 in ESE 8.4 mph 16.1 mph 42.7% 0 in
15:54 92.5 °F 66.2 °F 29.7 in SE 8.5 mph 16.1 mph 42.3% 0 in
15:59 92.7 °F 66 °F 29.7 in ESE 9.5 mph 17.3 mph 41.8% 0 in
16:04 92.7 °F 65.5 °F 29.7 in ESE 10 mph 18.5 mph 41% 0 in
16:09 92.8 °F 65.5 °F 29.7 in ESE 9.5 mph 19 mph 40.8% 0 in
16:14 93 °F 61.5 °F 29.7 in SE 9.2 mph 18.4 mph 35.4% 0 in
16:19 93.6 °F 61.7 °F 29.7 in ESE 10.1 mph 18 mph 34.9% 0 in
16:24 93.9 °F 60.1 °F 29.7 in SE 10.7 mph 15 mph 32.5% 0 in
16:29 94.5 °F 58.5 °F 29.7 in SE 8.7 mph 13.7 mph 30.4% 0 in
16:34 94.8 °F 57.2 °F 29.7 in SE 7.6 mph 17.3 mph 28.5% 0 in
16:39 94.8 °F 56.3 °F 29.7 in SE 8.6 mph 18.1 mph 27.6% 0 in
16:44 94.8 °F 56.5 °F 29.7 in ESE 9.2 mph 18 mph 27.9% 0 in
16:49 94.6 °F 56.3 °F 29.7 in ESE 10.2 mph 20.7 mph 27.8% 0 in
16:54 94.5 °F 56.5 °F 29.7 in ESE 10.7 mph 21 mph 28% 0 in
16:59 94.6 °F 56.3 °F 29.7 in SE 10.2 mph 18.4 mph 27.7% 0 in
17:04 95 °F 56.1 °F 29.7 in ESE 10 mph 18 mph 27.5% 0 in
17:09 94.8 °F 55.9 °F 29.7 in ESE 9.8 mph 18.4 mph 27.4% 0 in
17:14 94.6 °F 55.6 °F 29.7 in ESE 9.7 mph 18.5 mph 27% 0 in
17:19 94.8 °F 55 °F 29.7 in SE 10.5 mph 19 mph 26.4% 0 in
17:24 95.2 °F 55 °F 29.7 in ESE 11.2 mph 17 mph 26.1% 0 in
17:29 95.2 °F 55 °F 29.7 in ESE 9.4 mph 18.4 mph 26% 0 in
17:34 94.8 °F 54.5 °F 29.7 in Este 8.1 mph 18 mph 26% 0 in
17:39 94.6 °F 54.7 °F 29.7 in ESE 9.2 mph 18 mph 26.2% 0 in
17:44 94.6 °F 54.7 °F 29.7 in ESE 10 mph 15 mph 26.4% 0 in
17:49 94.5 °F 54.3 °F 29.7 in ESE 9.6 mph 16.1 mph 26% 0 in
17:54 94.3 °F 54 °F 29.7 in Este 9.2 mph 16.1 mph 25.8% 0 in
17:59 94.3 °F 53.6 °F 29.7 in ESE 9.2 mph 14 mph 25.6% 0 in
18:04 94.5 °F 53.4 °F 29.7 in Este 9.2 mph 14 mph 25.2% 0 in
18:09 94.5 °F 53.8 °F 29.7 in Este 9.2 mph 14 mph 25.5% 0 in
18:14 94.5 °F 54.3 °F 29.7 in ESE 9.2 mph 14 mph 26% 0 in
18:19 94.5 °F 54.3 °F 29.7 in ESE 8.5 mph 13 mph 26% 0 in
18:24 94.5 °F 54.3 °F 29.7 in Este 8.1 mph 13 mph 26% 0 in
18:29 94.5 °F 54.5 °F 29.7 in ESE 7.3 mph 13 mph 26.1% 0 in
18:34 94.6 °F 54.7 °F 29.7 in ESE 6.9 mph 11.8 mph 26.2% 0 in
18:39 94.6 °F 55.9 °F 29.7 in ESE 6.5 mph 12 mph 27.6% 0 in
18:44 94.5 °F 55.9 °F 29.7 in ESE 6.2 mph 10.4 mph 27.6% 0 in
18:49 94.6 °F 56.5 °F 29.7 in ESE 6 mph 10.7 mph 28.1% 0 in
18:54 94.5 °F 57 °F 29.7 in ESE 5.9 mph 11 mph 28.8% 0 in
18:59 94.5 °F 55.9 °F 29.7 in Este 6.1 mph 9.2 mph 27.7% 0 in
19:04 94.6 °F 55.9 °F 29.7 in SSO 6.2 mph 9 mph 27.4% 0 in
19:09 95.2 °F 56.3 °F 29.7 in Este 4.2 mph 9.2 mph 27.5% 0 in
19:14 94.8 °F 55.9 °F 29.7 in NE 2.9 mph 8.1 mph 27.3% 0 in
19:19 94.6 °F 54.5 °F 29.7 in NNE 4 mph 8.5 mph 26.1% 0 in
19:24 94.6 °F 54.5 °F 29.7 in North 4.7 mph 9 mph 26.1% 0 in
19:29 94.6 °F 54.5 °F 29.7 in North 4.5 mph 7 mph 26.1% 0 in
19:34 94.6 °F 54.5 °F 29.7 in North 4.3 mph 8.1 mph 26% 0 in
19:39 94.6 °F 56.5 °F 29.7 in North 4.3 mph 11.5 mph 28% 0 in
19:44 94.5 °F 59.2 °F 29.7 in NNO 4.3 mph 10.4 mph 31.1% 0 in
19:49 93.9 °F 61.5 °F 29.7 in North 5.5 mph 16.3 mph 34.2% 0 in
19:54 93.2 °F 63.3 °F 29.7 in North 6.2 mph 16.3 mph 37.3% 0 in
19:59 92.3 °F 63.3 °F 29.7 in North 7.4 mph 16 mph 38.4% 0 in
20:04 91.9 °F 61.2 °F 29.7 in NNE 8.1 mph 15 mph 36% 0 in
20:09 92.1 °F 57.4 °F 29.7 in North 6.9 mph 11.5 mph 31.2% 0 in
20:14 92.7 °F 57.9 °F 29.7 in NNE 6.2 mph 12 mph 31.4% 0 in
20:19 92.8 °F 57.7 °F 29.7 in NO 6 mph 10.4 mph 31.1% 0 in
20:24 92.8 °F 57.7 °F 29.7 in ONO 5.9 mph 10.7 mph 30.9% 0 in
20:29 92.8 °F 55.6 °F 29.7 in NO 6.1 mph 15.2 mph 28.6% 0 in
20:34 93 °F 48.7 °F 29.7 in ONO 6.2 mph 15 mph 22.1% 0 in
20:39 93.4 °F 46.4 °F 29.7 in ONO 8 mph 18.4 mph 20.1% 0 in
20:44 93.2 °F 46.8 °F 29.7 in ONO 9.2 mph 18 mph 20.5% 0 in
20:49 93 °F 47.3 °F 29.7 in ONO 9.2 mph 16.1 mph 21% 0 in
20:54 92.8 °F 48.2 °F 29.7 in ONO 9.2 mph 18.4 mph 21.9% 0 in
20:59 92.8 °F 48.4 °F 29.7 in ONO 9.7 mph 18.4 mph 22% 0 in
21:04 92.7 °F 48.2 °F 29.7 in Oeste 10 mph 15 mph 22% 0 in
21:09 92.3 °F 48 °F 29.7 in ONO 8.3 mph 13 mph 22% 0 in
21:14 91.9 °F 48.2 °F 29.7 in ONO 7.4 mph 15.9 mph 22.5% 0 in
21:19 91.9 °F 48.7 °F 29.7 in Oeste 7.5 mph 16.1 mph 23% 0 in
21:24 91.8 °F 48.6 °F 29.7 in Oeste 7.6 mph 16 mph 23% 0 in
21:29 91.6 °F 48.6 °F 29.7 in Oeste 7.9 mph 16.1 mph 23% 0 in
21:34 91.2 °F 48.4 °F 29.7 in Oeste 8.1 mph 19.7 mph 23% 0 in
21:39 91.2 °F 48.2 °F 29.7 in Oeste 9.1 mph 20 mph 23% 0 in
21:44 91 °F 48 °F 29.7 in Oeste 9.7 mph 18 mph 23% 0 in
21:49 90.9 °F 48 °F 29.7 in Oeste 8.8 mph 16 mph 23% 0 in
21:54 90.7 °F 47.8 °F 29.7 in ONO 8.1 mph 14 mph 23% 0 in
21:59 90.5 °F 48.4 °F 29.7 in NO 6.8 mph 12 mph 23.7% 0 in
22:04 90.1 °F 47.1 °F 29.7 in ONO 6.2 mph 15.2 mph 22.8% 0 in
22:09 90.1 °F 45.3 °F 29.8 in ONO 7.1 mph 18.5 mph 21.3% 0 in
22:14 90 °F 44.4 °F 29.8 in ONO 7.6 mph 19 mph 20.6% 0 in
22:19 90 °F 42.8 °F 29.8 in ONO 8.3 mph 20.8 mph 19.4% 0 in
22:24 90 °F 42.3 °F 29.8 in ONO 8.7 mph 19.7 mph 19% 0 in
22:29 90 °F 42.1 °F 29.8 in ONO 9.9 mph 20.7 mph 19% 0 in
22:34 89.8 °F 42.1 °F 29.8 in ONO 10.7 mph 21.3 mph 19% 0 in
22:39 89.6 °F 41.9 °F 29.8 in ONO 11.4 mph 21 mph 19% 0 in
22:44 89.4 °F 41.7 °F 29.8 in ONO 11.8 mph 21 mph 19% 0 in
22:49 89.2 °F 41.7 °F 29.8 in ONO 12.6 mph 23 mph 19% 0 in
22:54 89.1 °F 41.5 °F 29.8 in ONO 13 mph 23 mph 19% 0 in
22:59 88.9 °F 41.4 °F 29.8 in ONO 12 mph 19 mph 19% 0 in
23:04 88.7 °F 41 °F 29.8 in ONO 11.4 mph 20.8 mph 19% 0 in
23:09 88.5 °F 41 °F 29.8 in ONO 11.4 mph 18.5 mph 19% 0 in
23:14 88.3 °F 41.7 °F 29.8 in ONO 11.4 mph 23.5 mph 19.7% 0 in
23:19 88.2 °F 42.1 °F 29.8 in NO 11.3 mph 17.3 mph 20% 0 in
23:24 88 °F 41.9 °F 29.8 in ONO 11.2 mph 17 mph 20% 0 in
23:29 87.8 °F 41.7 °F 29.8 in ONO 10.3 mph 16.1 mph 20% 0 in
23:34 87.6 °F 42.6 °F 29.8 in ONO 9.7 mph 16 mph 20.8% 0 in
23:39 87.3 °F 42.6 °F 29.8 in ONO 7.4 mph 13 mph 21% 0 in
23:44 86.9 °F 42.3 °F 29.8 in ONO 6.2 mph 11.4 mph 21% 0 in
23:49 86.5 °F 42.8 °F 29.8 in ONO 6.3 mph 12 mph 21.6% 0 in
23:54 86.4 °F 43 °F 29.8 in ONO 6.4 mph 12 mph 22% 0 in
23:59 86.2 °F 43 °F 29.8 in ONO 6.7 mph 11.5 mph 22% 0 in
Murcia-Puente Tocinos, España
Compliments of Weather Underground - 2.75 mb

La estación de MeteoMurcia.com, publica sus datos en los siguientes proyectos:

Weather Underground PWS IMURCIAP2 Meteoclimatic www.awekas.at

W3Counter
Web Analytics